Time;durP1;ratioP1;P1;durP2;ratioP2;P2;SDS_P1;SDS_P2;PMS_P1;PMS_P2;Temp;Humidity;BMP_temperature;BMP_pressure;BME280_temperature;BME280_humidity;BME280_pressure;Samples;Min_cycle;Max_cycle;Signal;HPM_P1;HPM_P2
2023/05/01 00:02:25;;;;;;;;;;;3.30;99.90;;;;;;5085814;28;19920;-50
2023/05/01 00:04:51;;;;;;;;;;;3.30;99.90;;;;;;5085762;28;19912;-52
2023/05/01 00:07:17;;;;;;;;;;;3.30;99.90;;;;;;5061239;28;19919;-53
2023/05/01 00:09:42;;;;;;;;;;;3.20;99.90;;;;;;5073111;28;19916;-54
2023/05/01 00:12:09;;;;;;;;;;;3.20;99.90;;;;;;5077087;28;20403;-51
2023/05/01 00:14:34;;;;;;;;;;;3.20;99.90;;;;;;5088707;28;19912;-52
2023/05/01 00:17:00;;;;;;;;;;;3.20;99.90;;;;;;5070265;28;20249;-52
2023/05/01 00:19:25;;;;;;;;;;;3.20;99.90;;;;;;5086803;28;19911;-53
2023/05/01 00:21:51;;;;;;;;;;;3.20;99.90;;;;;;5073321;28;19951;-53
2023/05/01 00:24:17;;;;;;;;;;;3.20;99.90;;;;;;5087526;28;20355;-54
2023/05/01 00:26:43;;;;;;;;;;;3.20;99.90;;;;;;5074009;28;19939;-53
2023/05/01 00:29:08;;;;;;;;;;;3.20;99.90;;;;;;5088173;28;19943;-52
2023/05/01 00:31:34;;;;;;;;;;;3.20;99.90;;;;;;5077977;28;19911;-51
2023/05/01 00:34:00;;;;;;;;;;;3.20;99.90;;;;;;5068684;28;19934;-52
2023/05/01 00:36:25;;;;;;;;;;;3.20;99.90;;;;;;5068742;28;19917;-54
2023/05/01 00:38:51;;;;;;;;;;;3.20;99.90;;;;;;5086141;28;20279;-51
2023/05/01 00:41:16;;;;;;;;;;;3.20;99.90;;;;;;5080282;28;19908;-50
2023/05/01 00:43:42;;;;;;;;;;;3.20;99.90;;;;;;5076463;28;20361;-52
2023/05/01 00:46:08;;;;;;;;;;;3.20;99.90;;;;;;5087143;28;19912;-51
2023/05/01 00:48:34;;;;;;;;;;;3.30;99.90;;;;;;5048572;28;19958;-54
2023/05/01 00:51:00;;;;;;;;;;;3.30;99.90;;;;;;5077199;28;19908;-48
2023/05/01 00:53:27;;;;;;;;;;;3.30;99.90;;;;;;5089202;28;19988;-52
2023/05/01 00:55:55;;;;;;;;;;;3.30;99.90;;;;;;5076502;28;19958;-48
2023/05/01 00:58:20;;;;;;;;;;;3.40;99.90;;;;;;5090632;28;19904;-50
2023/05/01 01:00:47;;;;;;;;;;;3.40;99.90;;;;;;5088555;27;19909;-54
2023/05/01 01:03:12;;;;;;;;;;;3.30;99.90;;;;;;5070398;28;20479;-53
2023/05/01 01:05:43;;;;;;;;;;;3.40;99.90;;;;;;5076765;28;19920;-50
2023/05/01 01:08:09;;;;;;;;;;;3.40;99.90;;;;;;5089702;28;20418;-51
2023/05/01 01:10:34;;;;;;;;;;;3.40;99.90;;;;;;5068736;28;20016;-51
2023/05/01 01:13:07;;;;;;;;;;;3.50;99.90;;;;;;5089527;28;20272;-51
2023/05/01 01:15:34;;;;;;;;;;;3.50;99.90;;;;;;5079341;28;20427;-54
2023/05/01 01:18:05;;;;;;;;;;;3.50;99.90;;;;;;5069785;28;19915;-54
2023/05/01 01:20:32;;;;;;;;;;;3.50;99.90;;;;;;5075899;28;19908;-53
2023/05/01 01:23:06;;;;;;;;;;;3.50;99.90;;;;;;5068994;28;19920;-51
2023/05/01 01:25:40;;;;;;;;;;;3.50;99.90;;;;;;5049697;28;20002;-52
2023/05/01 01:28:15;;;;;;;;;;;3.50;99.90;;;;;;5066743;28;19954;-52
2023/05/01 01:30:40;;;;;;;;;;;3.50;99.90;;;;;;5049533;28;19991;-52
2023/05/01 01:33:06;;;;;;;;;;;3.50;99.90;;;;;;5067174;28;19944;-54
2023/05/01 01:35:32;;;;;;;;;;;3.50;99.90;;;;;;5089254;28;19914;-52
2023/05/01 01:37:58;;;;;;;;;;;3.50;99.90;;;;;;5068289;28;19950;-50
2023/05/01 01:40:27;;;;;;;;;;;3.40;99.90;;;;;;5088857;28;20318;-53
2023/05/01 01:43:05;;;;;;;;;;;3.40;99.90;;;;;;5067745;28;19916;-57
2023/05/01 01:45:41;;;;;;;;;;;3.40;99.90;;;;;;5049656;28;19916;-52
2023/05/01 01:48:14;;;;;;;;;;;3.40;99.90;;;;;;5068391;28;20029;-52
2023/05/01 01:50:42;;;;;;;;;;;3.40;99.90;;;;;;5089426;28;19908;-53
2023/05/01 01:53:09;;;;;;;;;;;3.40;99.90;;;;;;5067875;28;19914;-54
2023/05/01 01:55:35;;;;;;;;;;;3.40;99.90;;;;;;5089109;28;19912;-52
2023/05/01 01:58:02;;;;;;;;;;;3.40;99.90;;;;;;5068225;28;19952;-54
2023/05/01 02:00:28;;;;;;;;;;;3.40;99.90;;;;;;5089360;28;20291;-52
2023/05/01 02:02:54;;;;;;;;;;;3.30;99.90;;;;;;5068155;28;19970;-51
2023/05/01 02:05:22;;;;;;;;;;;3.30;99.90;;;;;;5070987;28;20003;-54
2023/05/01 02:07:49;;;;;;;;;;;3.20;99.90;;;;;;5068839;28;19908;-53
2023/05/01 02:10:15;;;;;;;;;;;3.20;99.90;;;;;;5087586;28;19908;-53
2023/05/01 02:12:43;;;;;;;;;;;3.20;99.90;;;;;;5067967;28;20398;-53
2023/05/01 02:15:09;;;;;;;;;;;3.10;99.90;;;;;;5087869;28;20308;-54
2023/05/01 02:17:35;;;;;;;;;;;3.10;99.90;;;;;;5120137;28;19908;-54
2023/05/01 02:20:04;;;;;;;;;;;3.00;99.90;;;;;;5071774;28;19913;-55
2023/05/01 02:22:32;;;;;;;;;;;3.00;99.90;;;;;;5068434;28;19916;-54
2023/05/01 02:24:59;;;;;;;;;;;2.90;99.90;;;;;;5087734;28;19945;-54
2023/05/01 02:27:33;;;;;;;;;;;2.90;99.90;;;;;;5065047;28;19955;-51
2023/05/01 02:29:58;;;;;;;;;;;2.90;99.90;;;;;;5088815;28;20007;-52
2023/05/01 02:32:24;;;;;;;;;;;2.80;99.90;;;;;;5074092;28;19943;-55
2023/05/01 02:34:51;;;;;;;;;;;2.80;99.90;;;;;;5068264;28;19951;-54
2023/05/01 02:37:17;;;;;;;;;;;2.80;99.90;;;;;;5108363;28;19999;-54
2023/05/01 02:39:43;;;;;;;;;;;2.80;99.90;;;;;;5087265;28;20006;-54
2023/05/01 02:42:11;;;;;;;;;;;2.70;99.90;;;;;;5077860;28;20204;-53
2023/05/01 02:44:42;;;;;;;;;;;2.70;99.90;;;;;;5065699;28;19998;-53
2023/05/01 02:47:08;;;;;;;;;;;2.60;99.90;;;;;;5084756;28;19912;-52
2023/05/01 02:49:34;;;;;;;;;;;2.60;99.90;;;;;;5071066;28;20086;-53
2023/05/01 02:51:59;;;;;;;;;;;2.50;99.90;;;;;;5089496;28;20006;-54
2023/05/01 02:54:25;;;;;;;;;;;2.50;99.90;;;;;;5069562;28;20279;-54
2023/05/01 02:56:51;;;;;;;;;;;2.50;99.90;;;;;;5087470;28;20321;-54
2023/05/01 02:59:17;;;;;;;;;;;2.50;99.90;;;;;;5070176;28;19908;-54
2023/05/01 03:01:42;;;;;;;;;;;2.40;99.90;;;;;;5087474;28;20346;-54
2023/05/01 03:04:08;;;;;;;;;;;2.40;99.90;;;;;;5070449;28;19923;-53
2023/05/01 03:06:33;;;;;;;;;;;2.40;99.90;;;;;;5063606;28;20150;-54
2023/05/01 03:08:59;;;;;;;;;;;2.40;99.90;;;;;;5074013;28;19962;-55
2023/05/01 03:11:25;;;;;;;;;;;2.30;99.90;;;;;;5071543;28;19985;-55
2023/05/01 03:13:50;;;;;;;;;;;2.30;99.90;;;;;;5089255;28;20011;-52
2023/05/01 03:16:16;;;;;;;;;;;2.30;99.90;;;;;;5068421;28;19916;-50
2023/05/01 03:18:41;;;;;;;;;;;2.30;99.90;;;;;;5088955;28;20286;-54
2023/05/01 03:21:07;;;;;;;;;;;2.20;99.90;;;;;;5074451;28;19943;-54
2023/05/01 03:23:32;;;;;;;;;;;2.20;99.90;;;;;;5089023;28;20370;-54
2023/05/01 03:25:58;;;;;;;;;;;2.20;99.90;;;;;;5074586;28;20003;-54
2023/05/01 03:28:23;;;;;;;;;;;2.20;99.90;;;;;;5089691;28;20410;-51
2023/05/01 03:30:49;;;;;;;;;;;2.20;99.90;;;;;;5071652;28;20004;-55
2023/05/01 03:33:15;;;;;;;;;;;2.20;99.90;;;;;;5089498;28;19912;-52
2023/05/01 03:35:40;;;;;;;;;;;2.10;99.90;;;;;;5067769;28;20003;-54
2023/05/01 03:38:05;;;;;;;;;;;2.20;99.90;;;;;;5088892;28;19915;-54
2023/05/01 03:40:31;;;;;;;;;;;2.20;99.90;;;;;;5078988;28;19912;-55
2023/05/01 03:42:56;;;;;;;;;;;2.20;99.90;;;;;;5069764;28;19920;-56
2023/05/01 03:45:22;;;;;;;;;;;2.20;99.90;;;;;;5086362;28;19926;-54
2023/05/01 03:47:47;;;;;;;;;;;2.30;99.90;;;;;;5069299;28;20300;-55
2023/05/01 03:50:13;;;;;;;;;;;2.30;99.90;;;;;;5081545;28;20269;-55
2023/05/01 03:52:38;;;;;;;;;;;2.30;99.90;;;;;;5086363;28;20398;-55
2023/05/01 03:55:04;;;;;;;;;;;2.40;99.90;;;;;;5068543;28;20006;-51
2023/05/01 03:57:29;;;;;;;;;;;2.40;99.90;;;;;;5089546;28;20056;-54
2023/05/01 03:59:56;;;;;;;;;;;2.50;99.90;;;;;;5067712;28;19912;-55
2023/05/01 04:02:21;;;;;;;;;;;2.60;99.90;;;;;;5089177;28;19912;-54
2023/05/01 04:04:47;;;;;;;;;;;2.60;99.90;;;;;;5069853;28;19922;-52
2023/05/01 04:07:12;;;;;;;;;;;2.70;99.90;;;;;;5087787;28;19908;-52
2023/05/01 04:09:38;;;;;;;;;;;2.80;99.90;;;;;;5081718;28;20003;-53
2023/05/01 04:12:03;;;;;;;;;;;2.80;99.90;;;;;;5084493;28;19904;-52
2023/05/01 04:14:29;;;;;;;;;;;2.90;99.90;;;;;;5087134;28;19919;-49
2023/05/01 04:16:55;;;;;;;;;;;2.90;99.90;;;;;;5089305;28;19904;-50
2023/05/01 04:19:20;;;;;;;;;;;3.10;99.90;;;;;;5067939;28;19919;-51
2023/05/01 04:21:46;;;;;;;;;;;3.10;99.90;;;;;;5088831;28;19916;-52
2023/05/01 04:24:12;;;;;;;;;;;3.40;99.90;;;;;;5072569;28;19986;-52
2023/05/01 04:26:37;;;;;;;;;;;3.70;99.90;;;;;;5088827;28;20026;-52
2023/05/01 04:29:03;;;;;;;;;;;4.40;99.90;;;;;;5073398;28;20343;-49
2023/05/01 04:31:29;;;;;;;;;;;5.10;99.90;;;;;;5088630;28;19911;-53
2023/05/01 04:33:54;;;;;;;;;;;6.20;96.60;;;;;;5063019;28;20282;-51
2023/05/01 04:36:21;;;;;;;;;;;7.30;90.30;;;;;;5089097;28;19915;-49
2023/05/01 04:38:47;;;;;;;;;;;8.30;81.40;;;;;;5068013;28;19908;-54
2023/05/01 04:41:15;;;;;;;;;;;9.20;71.90;;;;;;5090059;28;19931;-51
2023/05/01 04:43:40;;;;;;;;;;;9.90;65.90;;;;;;5069376;28;20283;-52
2023/05/01 04:46:06;;;;;;;;;;;10.60;59.80;;;;;;5090257;28;19916;-49
2023/05/01 04:48:31;;;;;;;;;;;11.10;53.40;;;;;;5064360;28;19957;-52
2023/05/01 04:50:57;;;;;;;;;;;11.70;50.20;;;;;;5090008;28;19954;-52
2023/05/01 04:53:24;;;;;;;;;;;12.40;41.20;;;;;;5069462;28;19919;-51
2023/05/01 04:55:49;;;;;;;;;;;13.10;39.10;;;;;;5089044;28;19951;-51
2023/05/01 04:58:15;;;;;;;;;;;13.50;34.80;;;;;;5062071;28;19966;-50
2023/05/01 05:00:41;;;;;;;;;;;13.90;29.90;;;;;;5090091;28;20009;-53
2023/05/01 05:03:07;;;;;;;;;;;14.20;28.10;;;;;;5069037;28;19922;-52
2023/05/01 05:05:33;;;;;;;;;;;14.50;25.00;;;;;;5079883;28;20006;-51
2023/05/01 05:07:58;;;;;;;;;;;14.70;22.70;;;;;;5075536;28;19908;-51
2023/05/01 05:10:24;;;;;;;;;;;14.40;23.50;;;;;;5089968;28;19915;-51
2023/05/01 05:12:51;;;;;;;;;;;14.60;22.10;;;;;;5068801;28;20284;-52
2023/05/01 05:15:17;;;;;;;;;;;14.80;21.40;;;;;;5090075;28;19958;-48
2023/05/01 05:17:44;;;;;;;;;;;15.10;20.70;;;;;;5067219;28;19951;-52
2023/05/01 05:20:09;;;;;;;;;;;15.10;18.80;;;;;;5085992;28;19958;-52
2023/05/01 05:22:36;;;;;;;;;;;15.30;18.00;;;;;;5070819;28;20555;-55
2023/05/01 05:25:05;;;;;;;;;;;15.20;18.40;;;;;;5088305;28;20064;-48
2023/05/01 05:27:35;;;;;;;;;;;15.70;17.60;;;;;;5069123;28;19913;-49
2023/05/01 05:30:01;;;;;;;;;;;15.60;16.40;;;;;;5087954;28;19912;-52
2023/05/01 05:32:27;;;;;;;;;;;16.10;16.00;;;;;;5076273;28;19912;-51
2023/05/01 05:34:53;;;;;;;;;;;16.30;14.30;;;;;;5079906;28;19990;-49
2023/05/01 05:37:18;;;;;;;;;;;16.30;14.70;;;;;;5076162;28;19912;-47
2023/05/01 05:39:44;;;;;;;;;;;17.10;13.80;;;;;;5080877;28;19919;-53
2023/05/01 05:42:10;;;;;;;;;;;17.50;12.20;;;;;;5070898;28;19920;-50
2023/05/01 05:44:36;;;;;;;;;;;17.70;11.30;;;;;;5085524;28;19927;-49
2023/05/01 05:47:01;;;;;;;;;;;18.10;10.00;;;;;;5067000;28;20277;-50
2023/05/01 05:49:27;;;;;;;;;;;18.10;10.20;;;;;;5071757;28;20003;-47
2023/05/01 05:51:53;;;;;;;;;;;18.40;9.20;;;;;;5072405;28;19909;-48
2023/05/01 05:54:19;;;;;;;;;;;18.40;8.40;;;;;;5079642;28;19927;-51
2023/05/01 05:56:45;;;;;;;;;;;18.70;8.40;;;;;;5079015;28;19911;-49
2023/05/01 05:59:10;;;;;;;;;;;18.40;8.10;;;;;;5087772;28;20356;-53
2023/05/01 06:01:36;;;;;;;;;;;18.40;7.70;;;;;;5072675;28;19932;-49
2023/05/01 06:04:02;;;;;;;;;;;18.60;7.30;;;;;;5086685;28;19919;-49
2023/05/01 06:06:27;;;;;;;;;;;19.50;6.90;;;;;;5077429;28;19920;-50
2023/05/01 06:08:53;;;;;;;;;;;19.80;6.30;;;;;;5074297;28;19912;-52
2023/05/01 06:11:20;;;;;;;;;;;20.10;4.80;;;;;;5068206;28;20406;-49
2023/05/01 06:13:45;;;;;;;;;;;20.60;4.80;;;;;;5079739;28;20325;-52
2023/05/01 06:16:11;;;;;;;;;;;21.10;3.40;;;;;;5074663;28;19916;-48
2023/05/01 06:18:36;;;;;;;;;;;21.60;3.30;;;;;;5068055;28;19934;-50
2023/05/01 06:21:02;;;;;;;;;;;21.40;2.70;;;;;;5069547;28;19916;-50
2023/05/01 06:23:28;;;;;;;;;;;21.70;2.40;;;;;;5067374;28;19920;-51
2023/05/01 06:25:55;;;;;;;;;;;21.10;1.90;;;;;;5071281;28;19911;-53
2023/05/01 06:28:20;;;;;;;;;;;20.30;3.10;;;;;;5085911;28;19911;-53
2023/05/01 06:30:46;;;;;;;;;;;21.30;2.20;;;;;;5073835;28;19908;-57
2023/05/01 06:33:12;;;;;;;;;;;22.40;1.90;;;;;;5086724;28;19994;-47
2023/05/01 06:35:37;;;;;;;;;;;23.20;1.00;;;;;;5071022;28;20406;-46
2023/05/01 06:38:03;;;;;;;;;;;23.30;1.00;;;;;;5079094;28;20189;-50
2023/05/01 06:40:30;;;;;;;;;;;24.00;1.00;;;;;;5079815;28;19987;-51
2023/05/01 06:42:56;;;;;;;;;;;24.10;1.00;;;;;;5086950;28;19927;-51
2023/05/01 06:45:21;;;;;;;;;;;24.20;1.00;;;;;;5069915;28;19920;-45
2023/05/01 06:47:47;;;;;;;;;;;25.40;1.00;;;;;;5086303;28;19908;-52
2023/05/01 06:50:13;;;;;;;;;;;25.80;1.00;;;;;;5080089;28;19911;-47
2023/05/01 06:52:40;;;;;;;;;;;25.40;1.00;;;;;;5083160;28;19926;-52
2023/05/01 06:55:06;;;;;;;;;;;25.40;1.00;;;;;;5071825;28;19912;-49
2023/05/01 06:57:31;;;;;;;;;;;25.10;1.00;;;;;;5080445;28;19955;-51
2023/05/01 06:59:57;;;;;;;;;;;25.50;1.00;;;;;;5076577;28;19912;-53
2023/05/01 07:02:22;;;;;;;;;;;25.90;1.00;;;;;;5084193;28;20026;-49
2023/05/01 07:04:52;;;;;;;;;;;25.50;1.00;;;;;;5082049;28;19919;-47
2023/05/01 07:07:31;;;;;;;;;;;24.90;1.00;;;;;;5065159;28;19916;-51
2023/05/01 07:09:56;;;;;;;;;;;24.50;1.00;;;;;;5084511;28;19912;-54
2023/05/01 07:12:22;;;;;;;;;;;25.50;1.00;;;;;;5085259;28;20386;-51
2023/05/01 07:14:48;;;;;;;;;;;25.70;1.00;;;;;;5084033;28;19912;-54
2023/05/01 07:17:14;;;;;;;;;;;26.10;1.00;;;;;;5067425;28;19951;-54
2023/05/01 07:19:41;;;;;;;;;;;25.60;1.00;;;;;;5084326;28;20395;-51
2023/05/01 07:22:06;;;;;;;;;;;24.40;1.00;;;;;;5069035;28;19994;-53
2023/05/01 07:24:32;;;;;;;;;;;24.00;1.00;;;;;;5086058;28;20379;-55
2023/05/01 07:26:58;;;;;;;;;;;23.80;1.00;;;;;;5068581;28;19962;-55
2023/05/01 07:29:24;;;;;;;;;;;24.90;1.00;;;;;;5088421;28;20126;-51
2023/05/01 07:31:51;;;;;;;;;;;25.70;1.00;;;;;;5091420;28;19908;-54
2023/05/01 07:34:18;;;;;;;;;;;25.80;1.00;;;;;;5076511;28;19908;-56
2023/05/01 07:36:43;;;;;;;;;;;25.30;1.00;;;;;;5093019;28;19951;-54
2023/05/01 07:39:11;;;;;;;;;;;25.40;1.00;;;;;;5075252;28;20407;-55
2023/05/01 07:41:36;;;;;;;;;;;25.20;1.00;;;;;;5092957;28;19916;-52
2023/05/01 07:44:01;;;;;;;;;;;25.70;1.00;;;;;;5074089;28;20007;-56
2023/05/01 07:46:27;;;;;;;;;;;26.10;1.00;;;;;;5092411;28;20436;-55
2023/05/01 07:48:52;;;;;;;;;;;26.00;1.00;;;;;;5073451;28;20013;-55
2023/05/01 07:51:22;;;;;;;;;;;26.00;1.00;;;;;;5091029;28;20233;-56
2023/05/01 07:53:48;;;;;;;;;;;26.20;1.00;;;;;;5072373;28;19908;-55
2023/05/01 07:56:13;;;;;;;;;;;24.80;1.00;;;;;;5091323;28;20387;-53
2023/05/01 07:58:41;;;;;;;;;;;24.80;1.00;;;;;;5070848;28;19955;-55
2023/05/01 08:01:08;;;;;;;;;;;24.80;1.00;;;;;;5092260;28;19957;-53
2023/05/01 08:03:33;;;;;;;;;;;24.50;1.00;;;;;;5071709;28;19920;-54
2023/05/01 08:06:00;;;;;;;;;;;24.20;1.00;;;;;;5077772;28;19908;-54
2023/05/01 08:08:25;;;;;;;;;;;23.80;1.00;;;;;;5091160;28;20287;-54
2023/05/01 08:10:51;;;;;;;;;;;23.30;1.00;;;;;;5070452;28;19912;-52
2023/05/01 08:13:17;;;;;;;;;;;22.80;1.00;;;;;;5091071;28;19950;-55
2023/05/01 08:15:44;;;;;;;;;;;21.70;1.00;;;;;;5069761;28;19962;-55
2023/05/01 08:18:10;;;;;;;;;;;21.70;1.00;;;;;;5090174;28;19907;-53
2023/05/01 08:20:36;;;;;;;;;;;21.40;1.00;;;;;;5070291;28;19962;-53
2023/05/01 08:23:01;;;;;;;;;;;21.30;1.00;;;;;;5090827;28;19919;-55
2023/05/01 08:25:27;;;;;;;;;;;21.20;1.00;;;;;;5070014;28;19913;-54
2023/05/01 08:27:52;;;;;;;;;;;20.70;1.00;;;;;;5090359;28;19912;-52
2023/05/01 08:30:19;;;;;;;;;;;21.10;1.00;;;;;;5070356;28;19910;-55
2023/05/01 08:32:44;;;;;;;;;;;21.40;1.00;;;;;;5091037;28;19954;-54
2023/05/01 08:35:10;;;;;;;;;;;21.40;1.00;;;;;;5070187;28;19909;-54
2023/05/01 08:37:36;;;;;;;;;;;21.10;1.00;;;;;;5090483;28;19908;-52
2023/05/01 08:40:07;;;;;;;;;;;21.40;1.00;;;;;;5068923;28;20398;-55
2023/05/01 08:42:36;;;;;;;;;;;21.70;1.00;;;;;;5051222;28;19917;-55
2023/05/01 08:45:03;;;;;;;;;;;21.80;1.00;;;;;;5067699;28;19916;-53
2023/05/01 08:47:30;;;;;;;;;;;21.50;1.00;;;;;;5090373;28;19908;-52
2023/05/01 08:49:56;;;;;;;;;;;21.10;1.00;;;;;;5080295;28;19912;-54
2023/05/01 08:52:22;;;;;;;;;;;21.20;1.00;;;;;;5071077;28;19915;-53
2023/05/01 08:54:49;;;;;;;;;;;21.50;1.00;;;;;;5088550;28;19908;-50
2023/05/01 08:57:16;;;;;;;;;;;21.10;1.00;;;;;;5070917;28;19920;-50
2023/05/01 08:59:42;;;;;;;;;;;20.50;1.00;;;;;;5088008;28;19908;-54
2023/05/01 09:02:09;;;;;;;;;;;20.40;1.00;;;;;;5070304;28;20073;-54
2023/05/01 09:04:36;;;;;;;;;;;20.70;1.00;;;;;;5087885;28;20382;-52
2023/05/01 09:07:02;;;;;;;;;;;20.20;1.00;;;;;;5070319;28;20342;-55
2023/05/01 09:09:28;;;;;;;;;;;20.60;1.00;;;;;;5076411;28;19908;-55
2023/05/01 09:11:56;;;;;;;;;;;21.00;1.00;;;;;;5090583;28;19931;-51
2023/05/01 09:14:22;;;;;;;;;;;20.80;1.00;;;;;;5085384;28;19991;-56
2023/05/01 09:16:47;;;;;;;;;;;20.50;1.00;;;;;;5090335;28;19994;-53
2023/05/01 09:19:13;;;;;;;;;;;20.00;1.00;;;;;;5069186;28;20344;-54
2023/05/01 09:21:40;;;;;;;;;;;20.10;1.00;;;;;;5086759;28;20069;-56
2023/05/01 09:24:07;;;;;;;;;;;20.00;1.00;;;;;;5068077;28;19926;-55
2023/05/01 09:26:35;;;;;;;;;;;20.20;1.00;;;;;;5089765;28;19907;-49
2023/05/01 09:29:01;;;;;;;;;;;20.50;1.00;;;;;;5068667;28;19970;-54
2023/05/01 09:31:27;;;;;;;;;;;20.80;1.00;;;;;;5090044;28;19916;-50
2023/05/01 09:33:55;;;;;;;;;;;21.10;1.00;;;;;;5068792;28;19912;-50
2023/05/01 09:36:21;;;;;;;;;;;20.50;1.00;;;;;;5089303;28;19908;-56
2023/05/01 09:38:47;;;;;;;;;;;20.50;1.00;;;;;;5068551;28;19919;-55
2023/05/01 09:41:13;;;;;;;;;;;20.60;1.00;;;;;;5089163;28;19908;-52
2023/05/01 09:43:38;;;;;;;;;;;20.60;1.00;;;;;;5068276;28;19917;-55
2023/05/01 09:46:13;;;;;;;;;;;20.40;1.00;;;;;;5087906;28;19916;-52
2023/05/01 09:48:50;;;;;;;;;;;20.30;1.00;;;;;;5071604;28;19953;-50
2023/05/01 09:51:30;;;;;;;;;;;20.10;1.00;;;;;;5049823;28;20280;-53
2023/05/01 09:53:56;;;;;;;;;;;20.40;1.00;;;;;;5072730;28;20130;-52
2023/05/01 09:56:22;;;;;;;;;;;20.30;1.00;;;;;;5089471;28;19912;-51
2023/05/01 09:58:53;;;;;;;;;;;20.10;1.00;;;;;;5069243;28;20142;-48
2023/05/01 10:01:36;;;;;;;;;;;20.30;1.00;;;;;;5068644;28;19919;-50
2023/05/01 10:04:02;;;;;;;;;;;20.50;1.00;;;;;;5059867;28;19989;-55
2023/05/01 10:06:28;;;;;;;;;;;20.70;1.00;;;;;;5071473;28;19912;-53
2023/05/01 10:08:53;;;;;;;;;;;20.80;1.00;;;;;;5084493;28;19916;-51
2023/05/01 10:11:19;;;;;;;;;;;20.80;1.00;;;;;;5087433;28;20057;-51
2023/05/01 10:13:44;;;;;;;;;;;20.90;1.00;;;;;;5072597;28;19912;-50
2023/05/01 10:16:27;;;;;;;;;;;20.70;1.00;;;;;;5079585;28;19938;-53
2023/05/01 10:18:53;;;;;;;;;;;20.40;1.00;;;;;;5083360;28;19912;-54
2023/05/01 10:21:23;;;;;;;;;;;19.70;1.00;;;;;;5087956;28;19908;-54
2023/05/01 10:23:53;;;;;;;;;;;19.60;1.00;;;;;;5070545;28;20299;-53
2023/05/01 10:26:19;;;;;;;;;;;19.80;1.30;;;;;;5087295;28;19911;-55
2023/05/01 10:28:46;;;;;;;;;;;19.60;1.00;;;;;;5069016;28;20212;-53
2023/05/01 10:31:13;;;;;;;;;;;19.40;1.00;;;;;;5087797;28;19919;-51
2023/05/01 10:33:39;;;;;;;;;;;19.30;1.60;;;;;;5069844;28;19911;-55
2023/05/01 10:36:06;;;;;;;;;;;19.30;1.30;;;;;;5085841;28;20116;-55
2023/05/01 10:38:36;;;;;;;;;;;19.20;1.90;;;;;;5068257;28;19912;-50
2023/05/01 10:41:02;;;;;;;;;;;19.00;1.60;;;;;;5087538;28;20475;-53
2023/05/01 10:43:33;;;;;;;;;;;18.90;1.70;;;;;;5067751;28;20011;-51
2023/05/01 10:46:08;;;;;;;;;;;18.80;2.00;;;;;;5087632;28;19969;-54
2023/05/01 10:48:36;;;;;;;;;;;18.60;2.80;;;;;;5068918;28;19914;-53
2023/05/01 10:51:12;;;;;;;;;;;18.70;2.60;;;;;;5071605;28;19982;-53
2023/05/01 10:53:41;;;;;;;;;;;18.70;3.00;;;;;;5063500;28;20154;-51
2023/05/01 10:56:26;;;;;;;;;;;18.40;2.20;;;;;;5066619;28;19909;-50
2023/05/01 10:58:52;;;;;;;;;;;18.10;3.50;;;;;;5082693;28;19961;-52
2023/05/01 11:01:28;;;;;;;;;;;18.20;3.90;;;;;;5069038;28;19913;-52
2023/05/01 11:03:57;;;;;;;;;;;18.30;3.60;;;;;;5071368;28;19927;-51
2023/05/01 11:06:23;;;;;;;;;;;18.50;3.40;;;;;;5075192;28;19908;-54
2023/05/01 11:08:48;;;;;;;;;;;18.20;3.10;;;;;;5092883;28;19973;-52
2023/05/01 11:11:20;;;;;;;;;;;18.10;3.40;;;;;;5076092;28;20385;-56
2023/05/01 11:13:59;;;;;;;;;;;18.20;4.40;;;;;;5073712;28;19957;-50
2023/05/01 11:16:36;;;;;;;;;;;18.30;3.30;;;;;;5069187;28;20280;-54
2023/05/01 11:19:05;;;;;;;;;;;18.30;2.30;;;;;;5103025;27;19965;-56
2023/05/01 11:21:33;;;;;;;;;;;18.10;2.70;;;;;;5069753;28;19958;-55
2023/05/01 11:24:09;;;;;;;;;;;18.00;3.80;;;;;;5124053;27;19962;-52
2023/05/01 11:26:38;;;;;;;;;;;17.90;3.10;;;;;;5064608;28;20118;-51
2023/05/01 11:29:11;;;;;;;;;;;17.90;4.10;;;;;;5049920;28;19931;-54
2023/05/01 11:31:40;;;;;;;;;;;18.00;3.30;;;;;;5073364;28;20042;-53
2023/05/01 11:34:05;;;;;;;;;;;18.10;3.20;;;;;;5091137;28;19912;-54
2023/05/01 11:36:50;;;;;;;;;;;18.30;3.70;;;;;;5069008;28;19919;-53
2023/05/01 11:39:18;;;;;;;;;;;18.40;3.30;;;;;;5090960;28;19931;-56
2023/05/01 11:41:44;;;;;;;;;;;18.40;3.50;;;;;;5070979;28;19919;-54
2023/05/01 11:44:12;;;;;;;;;;;18.40;2.30;;;;;;5088249;28;19917;-49
2023/05/01 11:46:39;;;;;;;;;;;18.40;2.60;;;;;;5070142;28;20398;-56
2023/05/01 11:49:06;;;;;;;;;;;18.50;2.80;;;;;;5054280;28;19958;-55
2023/05/01 11:51:32;;;;;;;;;;;18.60;3.10;;;;;;5088224;28;19916;-51
2023/05/01 11:54:01;;;;;;;;;;;18.80;2.60;;;;;;5067369;28;19952;-50
2023/05/01 11:56:27;;;;;;;;;;;19.00;1.80;;;;;;5072834;28;19912;-53
2023/05/01 11:58:53;;;;;;;;;;;19.20;1.30;;;;;;5089158;28;19919;-53
2023/05/01 12:01:19;;;;;;;;;;;19.30;1.10;;;;;;5070787;28;19943;-52
2023/05/01 12:03:45;;;;;;;;;;;19.50;2.80;;;;;;5089104;28;19920;-51
2023/05/01 12:06:12;;;;;;;;;;;19.70;1.60;;;;;;5069465;28;19913;-53
2023/05/01 12:08:46;;;;;;;;;;;19.90;1.80;;;;;;5089335;28;20154;-50
2023/05/01 12:11:11;;;;;;;;;;;20.10;1.60;;;;;;5076245;28;19912;-55
2023/05/01 12:13:42;;;;;;;;;;;20.00;1.00;;;;;;5088379;28;19942;-49
2023/05/01 12:16:08;;;;;;;;;;;19.90;1.00;;;;;;5071867;28;19912;-54
2023/05/01 12:18:34;;;;;;;;;;;20.00;1.00;;;;;;5087391;28;19923;-52
2023/05/01 12:21:01;;;;;;;;;;;20.00;1.00;;;;;;5068214;28;19912;-54
2023/05/01 12:23:34;;;;;;;;;;;20.00;1.00;;;;;;5088042;28;19919;-54
2023/05/01 12:26:14;;;;;;;;;;;19.90;1.00;;;;;;5081121;28;19912;-50
2023/05/01 12:28:52;;;;;;;;;;;19.40;1.00;;;;;;5055019;28;19908;-57
2023/05/01 12:31:19;;;;;;;;;;;19.60;1.10;;;;;;5080298;28;20441;-53
2023/05/01 12:33:54;;;;;;;;;;;19.70;1.00;;;;;;5088827;28;20394;-55
2023/05/01 12:36:26;;;;;;;;;;;19.70;1.40;;;;;;5067459;28;20302;-57
2023/05/01 12:39:00;;;;;;;;;;;19.80;2.10;;;;;;5078057;28;19912;-52
2023/05/01 12:41:33;;;;;;;;;;;19.80;2.00;;;;;;5078405;28;20020;-52
2023/05/01 12:44:00;;;;;;;;;;;19.70;1.00;;;;;;5087007;28;19950;-56
2023/05/01 12:46:25;;;;;;;;;;;19.20;1.00;;;;;;5047282;28;19916;-54
2023/05/01 12:48:53;;;;;;;;;;;19.00;1.80;;;;;;5087002;28;20176;-57
2023/05/01 12:51:19;;;;;;;;;;;18.90;2.30;;;;;;5079562;28;19908;-54
2023/05/01 12:53:45;;;;;;;;;;;19.00;2.40;;;;;;5067606;28;20015;-55
2023/05/01 12:56:22;;;;;;;;;;;19.10;1.10;;;;;;5066379;28;20438;-55
2023/05/01 12:58:52;;;;;;;;;;;19.10;1.30;;;;;;5078130;28;20405;-53
2023/05/01 13:01:25;;;;;;;;;;;19.20;2.10;;;;;;5070663;28;19937;-55
2023/05/01 13:03:53;;;;;;;;;;;19.20;1.60;;;;;;5088441;28;19931;-55
2023/05/01 13:06:21;;;;;;;;;;;19.30;2.10;;;;;;5066506;28;19918;-55
2023/05/01 13:08:51;;;;;;;;;;;19.10;2.60;;;;;;5088185;28;19912;-49
2023/05/01 13:11:17;;;;;;;;;;;19.40;2.30;;;;;;5079458;28;19943;-46
2023/05/01 13:13:45;;;;;;;;;;;19.60;2.80;;;;;;5086250;28;20363;-50
2023/05/01 13:16:11;;;;;;;;;;;19.90;2.30;;;;;;5075046;28;20704;-45
2023/05/01 13:18:47;;;;;;;;;;;20.10;1.70;;;;;;5066648;28;20007;-46
2023/05/01 13:21:15;;;;;;;;;;;20.10;1.10;;;;;;5087276;28;19912;-46
2023/05/01 13:23:41;;;;;;;;;;;20.30;1.00;;;;;;5070071;28;19919;-50
2023/05/01 13:26:07;;;;;;;;;;;20.20;1.00;;;;;;5087520;28;19943;-45
2023/05/01 13:28:34;;;;;;;;;;;20.30;1.00;;;;;;5065990;28;20502;-44
2023/05/01 13:30:59;;;;;;;;;;;20.20;1.00;;;;;;5087539;28;20010;-48
2023/05/01 13:33:29;;;;;;;;;;;20.20;1.00;;;;;;5066712;28;20019;-44
2023/05/01 13:35:55;;;;;;;;;;;20.20;1.20;;;;;;5084829;28;19912;-50
2023/05/01 13:38:23;;;;;;;;;;;20.20;2.00;;;;;;5068835;28;19912;-47
2023/05/01 13:40:50;;;;;;;;;;;20.20;1.00;;;;;;5087301;28;19908;-45
2023/05/01 13:43:16;;;;;;;;;;;20.20;2.10;;;;;;5069495;28;19932;-48
2023/05/01 13:45:42;;;;;;;;;;;20.30;2.20;;;;;;5087289;28;20003;-49
2023/05/01 13:48:08;;;;;;;;;;;20.40;2.40;;;;;;5070609;28;19913;-45
2023/05/01 13:50:33;;;;;;;;;;;20.50;2.80;;;;;;5086806;28;19920;-50
2023/05/01 13:52:59;;;;;;;;;;;20.60;2.10;;;;;;5068118;28;19908;-45
2023/05/01 13:55:24;;;;;;;;;;;20.50;1.00;;;;;;5087388;28;19908;-44
2023/05/01 13:57:51;;;;;;;;;;;20.30;1.10;;;;;;5066516;28;20007;-46
2023/05/01 14:00:17;;;;;;;;;;;20.10;1.00;;;;;;5080613;28;19908;-49
2023/05/01 14:02:47;;;;;;;;;;;20.00;1.90;;;;;;5047172;28;19932;-46
2023/05/01 14:05:14;;;;;;;;;;;20.00;2.10;;;;;;5080493;28;20337;-45
2023/05/01 14:07:47;;;;;;;;;;;20.10;1.60;;;;;;5066937;28;20624;-44
2023/05/01 14:10:13;;;;;;;;;;;20.00;1.00;;;;;;5085444;28;19954;-44
2023/05/01 14:12:39;;;;;;;;;;;20.00;1.00;;;;;;5086881;28;19934;-46
2023/05/01 14:15:07;;;;;;;;;;;19.90;1.00;;;;;;5085182;28;20451;-45
2023/05/01 14:17:33;;;;;;;;;;;19.90;1.20;;;;;;5087246;28;19908;-45
2023/05/01 14:19:59;;;;;;;;;;;20.00;1.50;;;;;;5066097;28;20031;-46
2023/05/01 14:22:29;;;;;;;;;;;20.00;1.30;;;;;;5064154;28;20413;-46
2023/05/01 14:24:54;;;;;;;;;;;20.00;1.00;;;;;;5074502;28;19908;-45
2023/05/01 14:27:20;;;;;;;;;;;20.10;2.70;;;;;;5087494;28;19930;-46
2023/05/01 14:29:46;;;;;;;;;;;20.10;2.10;;;;;;5086415;28;19966;-48